Portsmouth, Iowa
Current Conditions -  °F | °C
As of 7:15 AM on Sunday 23 Nov 2014 (Local Time) from KHNR Reporting Station
Overcast Overcast  
Wind Chill: 52°   Ceiling: 700
Heat Index: 52°   Visibility: 10mi
Dew Point: 52°   Wind: 12mph
Humidity: 100%   Direction: 180°S
Pressure: 29.52"   Gusts: NA
Location:  41.65°N, 95.52°W
Report Text: KHNR 231315Z AUTO 18010KT 10SM BKN007 OVC029 11/11 A2952 RMK AO2
Loading
Personal Weather Stations






























Interactive Weather Map New forecast layout! Learn more

10-Day Weather Forecast

Advertisements
Track Severe Weather on mobile